createdAt,value
2022-10-18T00:02:05.255Z,12.93
2022-10-18T00:04:49.260Z,13.40
2022-10-18T00:07:34.665Z,11.50
2022-10-18T00:10:18.773Z,15.87
2022-10-18T00:13:02.713Z,10.87
2022-10-18T00:15:51.071Z,10.67
2022-10-18T00:18:34.999Z,9.37
2022-10-18T00:21:21.295Z,9.43
2022-10-18T00:24:07.668Z,10.40
2022-10-18T00:26:51.567Z,9.50
2022-10-18T00:29:36.095Z,15.97
2022-10-18T00:32:20.182Z,10.80
2022-10-18T00:35:04.318Z,9.13
2022-10-18T00:37:48.360Z,13.57
2022-10-18T00:40:33.807Z,14.93
2022-10-18T00:43:19.515Z,15.80
2022-10-18T00:46:03.482Z,18.43
2022-10-18T00:48:47.886Z,16.17
2022-10-18T00:51:37.732Z,15.97
2022-10-18T00:54:22.631Z,17.13
2022-10-18T00:57:08.679Z,20.00
2022-10-18T00:59:53.115Z,19.33
2022-10-18T01:02:37.445Z,16.73
2022-10-18T01:05:21.697Z,12.47
2022-10-18T01:08:31.650Z,16.27
2022-10-18T01:11:36.039Z,21.03
2022-10-18T01:14:31.019Z,15.57
2022-10-18T01:17:19.950Z,18.27
2022-10-18T01:20:20.815Z,19.37
2022-10-18T01:23:12.484Z,23.63
2022-10-18T01:26:10.597Z,22.50
2022-10-18T01:29:03.446Z,22.77
2022-10-18T01:31:54.277Z,21.77
2022-10-18T01:34:44.700Z,22.03
2022-10-18T01:37:31.486Z,18.63
2022-10-18T01:40:19.637Z,21.07
2022-10-18T01:43:08.243Z,15.07
2022-10-18T01:45:56.170Z,9.50
2022-10-18T01:48:41.566Z,10.43
2022-10-18T01:51:27.222Z,16.83
2022-10-18T01:54:14.187Z,15.23
2022-10-18T01:57:03.104Z,12.63
2022-10-18T01:59:57.694Z,10.53
2022-10-18T02:02:47.544Z,10.50
2022-10-18T02:05:42.756Z,9.33
2022-10-18T02:08:31.993Z,13.07
2022-10-18T02:11:17.479Z,12.80
2022-10-18T02:14:06.773Z,13.13
2022-10-18T02:16:52.983Z,11.27
2022-10-18T02:19:41.213Z,14.10
2022-10-18T02:22:32.108Z,12.57
2022-10-18T02:25:23.573Z,17.10
2022-10-18T02:28:11.251Z,16.57
2022-10-18T02:31:07.141Z,10.40
2022-10-18T02:33:54.904Z,9.67
2022-10-18T02:36:44.124Z,15.03
2022-10-18T02:39:32.313Z,15.43
2022-10-18T02:42:17.000Z,18.30
2022-10-18T02:45:00.687Z,20.47
2022-10-18T02:47:44.552Z,15.93
2022-10-18T02:50:28.441Z,10.07
2022-10-18T02:53:12.170Z,10.90
2022-10-18T02:55:57.403Z,10.53
2022-10-18T02:58:41.104Z,13.03
2022-10-18T03:01:25.103Z,14.10
2022-10-18T03:04:08.875Z,13.87
2022-10-18T03:06:52.776Z,14.77
2022-10-18T03:09:36.653Z,12.57
2022-10-18T03:12:22.177Z,11.67
2022-10-18T03:15:07.207Z,12.37
2022-10-18T03:17:51.209Z,13.83
2022-10-18T03:20:35.530Z,14.07
2022-10-18T03:23:19.464Z,13.60
2022-10-18T03:26:03.519Z,11.67
2022-10-18T03:28:49.073Z,13.77
2022-10-18T03:31:33.908Z,11.23
2022-10-18T03:34:18.151Z,11.97
2022-10-18T03:37:04.735Z,14.97
2022-10-18T03:39:49.318Z,14.00
2022-10-18T03:42:33.195Z,15.63
2022-10-18T03:45:18.518Z,13.33
2022-10-18T03:48:02.238Z,13.37
2022-10-18T03:50:46.011Z,17.53
2022-10-18T03:53:29.681Z,12.60
2022-10-18T03:56:13.481Z,13.63
2022-10-18T03:58:57.865Z,13.20
2022-10-18T04:01:43.096Z,14.13
2022-10-18T04:04:26.822Z,21.17
2022-10-18T04:07:10.551Z,17.27
2022-10-18T04:09:54.288Z,19.97
2022-10-18T04:12:37.984Z,23.27
2022-10-18T04:15:21.922Z,24.27
2022-10-18T04:18:07.036Z,22.40
2022-10-18T04:20:50.802Z,23.37
2022-10-18T04:23:37.886Z,22.07
2022-10-18T04:26:22.960Z,20.87
2022-10-18T04:29:06.897Z,27.13
2022-10-18T04:31:50.742Z,25.30
2022-10-18T04:34:35.960Z,21.07
2022-10-18T04:37:19.633Z,23.57
2022-10-18T04:40:03.603Z,23.13
2022-10-18T04:43:01.151Z,21.83
2022-10-18T04:45:46.297Z,18.73
2022-10-18T04:48:30.274Z,17.77
2022-10-18T04:51:14.068Z,20.93
2022-10-18T04:53:57.811Z,28.77
2022-10-18T04:56:41.530Z,27.30
2022-10-18T04:59:26.803Z,20.87
2022-10-18T05:02:10.657Z,20.10
2022-10-18T05:04:54.552Z,24.37
2022-10-18T05:07:38.426Z,28.53
2022-10-18T05:10:22.180Z,25.93
2022-10-18T05:13:06.218Z,24.97
2022-10-18T05:15:51.254Z,28.53
2022-10-18T05:18:34.968Z,21.50
2022-10-18T05:21:18.795Z,20.50
2022-10-18T05:24:02.855Z,19.00
2022-10-18T05:26:46.837Z,24.27
2022-10-18T05:29:30.570Z,24.40
2022-10-18T05:32:15.615Z,19.13
2022-10-18T05:34:59.349Z,22.67
2022-10-18T05:37:43.072Z,17.13
2022-10-18T05:40:26.828Z,19.43
2022-10-18T05:43:10.620Z,16.37
2022-10-18T05:45:54.426Z,19.53
2022-10-18T05:48:39.540Z,22.80
2022-10-18T05:51:23.306Z,15.43
2022-10-18T05:54:06.991Z,22.07
2022-10-18T05:56:50.706Z,19.07
2022-10-18T05:59:34.496Z,13.10
2022-10-18T06:02:18.373Z,20.77
2022-10-18T06:05:03.505Z,12.97
2022-10-18T06:07:47.292Z,17.00
2022-10-18T06:10:31.013Z,15.03
2022-10-18T06:13:14.775Z,12.13
2022-10-18T06:15:58.676Z,14.37
2022-10-18T06:18:42.920Z,16.17
2022-10-18T06:21:28.133Z,18.30
2022-10-18T06:24:11.805Z,15.07
2022-10-18T06:26:55.634Z,14.30
2022-10-18T06:29:40.960Z,8.03
2022-10-18T06:32:24.669Z,10.20
2022-10-18T06:35:09.297Z,10.83
2022-10-18T06:37:54.829Z,7.90
2022-10-18T06:40:38.876Z,10.07
2022-10-18T06:43:23.316Z,9.00
2022-10-18T06:46:09.014Z,10.40
2022-10-18T06:48:52.904Z,8.17
2022-10-18T06:51:36.751Z,7.13
2022-10-18T06:54:22.083Z,7.33
2022-10-18T06:57:05.807Z,8.30
2022-10-18T06:59:50.152Z,8.43
2022-10-18T07:02:34.186Z,10.00
2022-10-18T07:05:18.197Z,7.33
2022-10-18T07:08:01.991Z,9.23
2022-10-18T07:10:54.089Z,6.57
2022-10-18T07:13:37.761Z,6.93
2022-10-18T07:16:21.866Z,11.57
2022-10-18T07:19:05.796Z,11.23
2022-10-18T07:21:49.512Z,10.97
2022-10-18T07:27:18.354Z,7.20
2022-10-18T07:30:02.060Z,8.03
2022-10-18T07:32:47.422Z,11.03
2022-10-18T07:35:31.139Z,15.73
2022-10-18T07:38:14.923Z,11.40
2022-10-18T07:40:58.800Z,7.57
2022-10-18T07:43:46.332Z,6.00
2022-10-18T07:46:30.422Z,12.53
2022-10-18T07:49:14.176Z,8.10
2022-10-18T07:51:57.981Z,5.77
2022-10-18T07:54:41.731Z,7.17
2022-10-18T07:57:25.486Z,6.97
2022-10-18T08:00:12.254Z,6.00
2022-10-18T08:02:57.258Z,7.50
2022-10-18T08:05:41.084Z,6.40
2022-10-18T08:08:25.995Z,8.73
2022-10-18T08:11:12.248Z,5.03
2022-10-18T08:13:55.983Z,4.40
2022-10-18T08:16:41.192Z,4.10
2022-10-18T08:19:24.951Z,7.00
2022-10-18T08:22:08.758Z,5.43
2022-10-18T08:24:52.540Z,7.50
2022-10-18T08:27:36.243Z,8.40
2022-10-18T08:30:20.014Z,5.70
2022-10-18T08:33:05.220Z,4.97
2022-10-18T08:35:56.585Z,7.10
2022-10-18T08:38:42.427Z,8.27
2022-10-18T08:41:45.216Z,9.13
2022-10-18T08:44:31.728Z,5.68
2022-10-18T08:47:18.825Z,5.15
2022-10-18T08:50:07.179Z,4.30
2022-10-18T08:52:59.368Z,3.45
2022-10-18T08:55:47.063Z,2.30
2022-10-18T08:58:33.586Z,3.00
2022-10-18T09:01:27.810Z,6.50
2022-10-18T09:04:36.072Z,5.60
2022-10-18T09:07:43.035Z,5.35
2022-10-18T09:10:39.337Z,2.22
2022-10-18T09:13:41.659Z,3.25
2022-10-18T09:16:32.218Z,2.33
2022-10-18T09:19:28.553Z,3.33
2022-10-18T09:22:15.260Z,2.47
2022-10-18T09:25:07.642Z,2.35
2022-10-18T09:27:55.137Z,7.18
2022-10-18T09:30:51.720Z,2.65
2022-10-18T09:33:55.410Z,4.13
2022-10-18T09:36:40.111Z,5.78
2022-10-18T09:39:26.979Z,2.60
2022-10-18T09:42:26.553Z,4.50
2022-10-18T09:45:23.591Z,3.17
2022-10-18T09:48:15.241Z,3.40
2022-10-18T09:51:04.468Z,2.13
2022-10-18T09:53:58.039Z,2.78
2022-10-18T09:56:47.117Z,5.40
2022-10-18T09:59:43.229Z,2.50
2022-10-18T10:02:26.984Z,2.53
2022-10-18T10:05:14.214Z,3.63
2022-10-18T10:08:02.383Z,3.67
2022-10-18T10:10:48.760Z,2.22
2022-10-18T10:13:32.847Z,3.67
2022-10-18T10:16:18.025Z,1.83
2022-10-18T10:19:02.251Z,4.78
2022-10-18T10:21:46.578Z,2.92
2022-10-18T10:24:38.336Z,2.03
2022-10-18T10:27:32.173Z,2.08
2022-10-18T10:30:27.309Z,2.03
2022-10-18T10:33:33.627Z,3.47
2022-10-18T10:36:20.297Z,3.40
2022-10-18T10:39:06.061Z,2.70
2022-10-18T10:41:52.407Z,1.92
2022-10-18T10:44:38.029Z,6.22
2022-10-18T10:47:30.208Z,4.13
2022-10-18T10:50:25.826Z,3.55
2022-10-18T10:53:27.033Z,3.42
2022-10-18T10:56:20.297Z,2.42
2022-10-18T10:59:10.980Z,1.77
2022-10-18T11:02:20.779Z,2.65
2022-10-18T11:05:25.430Z,2.22
2022-10-18T11:08:12.394Z,1.80
2022-10-18T11:11:08.536Z,2.25
2022-10-18T11:14:13.788Z,2.65
2022-10-18T11:17:12.194Z,2.78
2022-10-18T11:20:16.658Z,3.00
2022-10-18T11:23:03.713Z,1.73
2022-10-18T11:26:09.121Z,4.40
2022-10-18T11:29:12.855Z,2.22
2022-10-18T11:32:07.546Z,2.95
2022-10-18T11:35:05.054Z,3.78
2022-10-18T11:38:00.816Z,3.13
2022-10-18T11:41:06.143Z,4.47
2022-10-18T11:44:02.775Z,1.98
2022-10-18T11:46:58.858Z,2.42
2022-10-18T11:49:57.829Z,2.33
2022-10-18T11:52:51.311Z,4.07
2022-10-18T11:55:45.631Z,1.70
2022-10-18T11:58:42.646Z,3.20
2022-10-18T12:01:31.725Z,5.43
2022-10-18T12:04:20.186Z,2.53
2022-10-18T12:07:07.906Z,4.05
2022-10-18T12:09:55.492Z,5.07
2022-10-18T12:12:49.582Z,3.25
2022-10-18T12:15:38.323Z,3.75
2022-10-18T12:18:26.615Z,5.85
2022-10-18T12:21:14.318Z,8.55
2022-10-18T12:24:01.206Z,2.33
2022-10-18T12:26:48.603Z,5.07
2022-10-18T12:29:42.667Z,2.03
2022-10-18T12:32:33.711Z,1.92
2022-10-18T12:35:21.481Z,3.20
2022-10-18T12:38:19.090Z,3.80
2022-10-18T12:41:03.314Z,3.65
2022-10-18T12:43:52.885Z,3.47
2022-10-18T12:46:48.187Z,2.20
2022-10-18T12:49:35.432Z,2.65
2022-10-18T12:52:23.168Z,4.32
2022-10-18T12:55:34.988Z,4.35
2022-10-18T12:58:28.280Z,3.35
2022-10-18T13:01:12.027Z,1.50
2022-10-18T13:03:58.783Z,2.60
2022-10-18T13:07:19.870Z,3.78
2022-10-18T13:10:40.058Z,3.38
2022-10-18T13:13:55.991Z,2.33
2022-10-18T13:16:45.489Z,3.17
2022-10-18T13:19:39.848Z,3.40
2022-10-18T13:22:45.000Z,6.90
2022-10-18T13:25:35.506Z,1.80
2022-10-18T13:28:28.249Z,2.88
2022-10-18T13:31:20.566Z,2.25
2022-10-18T13:34:24.301Z,3.38
2022-10-18T13:37:24.072Z,3.20
2022-10-18T13:40:25.338Z,3.55
2022-10-18T13:43:41.959Z,2.30
2022-10-18T13:46:46.658Z,4.57
2022-10-18T13:49:38.056Z,3.35
2022-10-18T13:52:30.655Z,2.22
2022-10-18T13:55:34.950Z,1.88
2022-10-18T13:58:27.167Z,3.38
2022-10-18T14:01:24.445Z,3.08
2022-10-18T14:04:34.764Z,2.78
2022-10-18T14:07:19.792Z,2.85
2022-10-18T14:10:06.175Z,4.47
2022-10-18T14:12:56.592Z,3.50
2022-10-18T14:15:43.139Z,2.13
2022-10-18T14:18:32.062Z,3.83
2022-10-18T14:21:27.455Z,2.53
2022-10-18T14:24:22.494Z,2.33
2022-10-18T14:27:18.392Z,5.22
2022-10-18T14:30:14.522Z,3.05
2022-10-18T14:32:59.601Z,3.40
2022-10-18T14:35:43.954Z,3.03
2022-10-18T14:38:27.908Z,2.57
2022-10-18T14:41:22.032Z,4.25
2022-10-18T14:44:19.712Z,6.85
2022-10-18T14:47:15.927Z,3.20
2022-10-18T14:50:00.860Z,2.43
2022-10-18T14:52:44.697Z,7.13
2022-10-18T14:55:29.639Z,2.50
2022-10-18T14:58:17.414Z,3.80
2022-10-18T15:01:01.651Z,4.17
2022-10-18T15:03:48.349Z,4.63
2022-10-18T15:06:34.216Z,3.47
2022-10-18T15:09:23.694Z,4.93
2022-10-18T15:12:08.686Z,3.03
2022-10-18T15:14:53.808Z,5.37
2022-10-18T15:17:37.697Z,5.43
2022-10-18T15:20:25.148Z,4.60
2022-10-18T15:23:24.394Z,5.10
2022-10-18T15:26:11.355Z,40.70
2022-10-18T15:29:00.455Z,17.70
2022-10-18T15:31:48.287Z,11.27
2022-10-18T15:34:32.338Z,11.97
2022-10-18T15:37:32.649Z,7.00
2022-10-18T15:40:30.502Z,6.30
2022-10-18T15:43:37.083Z,4.40
2022-10-18T15:46:32.151Z,4.17
2022-10-18T15:49:56.791Z,6.43
2022-10-18T15:52:43.639Z,4.53
2022-10-18T15:55:48.058Z,5.70
2022-10-18T15:58:40.153Z,5.20
2022-10-18T16:01:30.494Z,4.00
2022-10-18T16:04:19.675Z,4.93
2022-10-18T16:07:03.584Z,6.33
2022-10-18T16:09:48.927Z,12.00
2022-10-18T16:12:33.164Z,5.83
2022-10-18T16:15:17.062Z,5.30
2022-10-18T16:18:00.936Z,7.07
2022-10-18T16:20:45.049Z,3.80
2022-10-18T16:23:29.717Z,5.47
2022-10-18T16:26:17.651Z,13.50
2022-10-18T16:29:01.989Z,14.07
2022-10-18T16:31:46.722Z,20.57
2022-10-18T16:34:32.231Z,11.40
2022-10-18T16:37:16.301Z,8.53
2022-10-18T16:40:00.130Z,10.80
2022-10-18T16:42:45.517Z,15.13
2022-10-18T16:45:29.456Z,12.50
2022-10-18T16:48:15.893Z,5.03
2022-10-18T16:51:00.420Z,6.37
2022-10-18T16:53:44.695Z,9.53
2022-10-18T16:56:30.631Z,13.53
2022-10-18T16:59:23.049Z,8.13
2022-10-18T17:02:09.285Z,14.23
2022-10-18T17:04:53.002Z,9.03
2022-10-18T17:07:36.953Z,5.90
2022-10-18T17:10:24.299Z,7.33
2022-10-18T17:13:08.135Z,10.37
2022-10-18T17:15:54.338Z,6.57
2022-10-18T17:18:38.150Z,5.23
2022-10-18T17:21:24.882Z,7.33
2022-10-18T17:24:08.715Z,8.00
2022-10-18T17:26:52.456Z,17.13
2022-10-18T17:29:36.229Z,12.80
2022-10-18T17:32:21.317Z,8.80
2022-10-18T17:35:05.908Z,6.87
2022-10-18T17:37:50.448Z,7.03
2022-10-18T17:40:34.803Z,6.13
2022-10-18T17:43:18.581Z,4.87
2022-10-18T17:46:02.403Z,5.87
2022-10-18T17:48:48.194Z,8.33
2022-10-18T17:51:32.091Z,8.47
2022-10-18T17:54:15.845Z,10.73
2022-10-18T17:56:59.639Z,8.60
2022-10-18T17:59:43.466Z,10.67
2022-10-18T18:02:27.359Z,11.00
2022-10-18T18:05:12.747Z,11.00
2022-10-18T18:08:01.313Z,6.10
2022-10-18T18:13:32.612Z,7.70
2022-10-18T18:16:19.711Z,5.33
2022-10-18T18:19:06.197Z,6.97
2022-10-18T18:21:55.183Z,9.23
2022-10-18T18:24:41.850Z,6.27
2022-10-18T18:27:26.033Z,7.20
2022-10-18T18:30:10.761Z,10.93
2022-10-18T18:32:56.782Z,8.07
2022-10-18T18:35:40.603Z,6.03
2022-10-18T18:38:26.240Z,6.80
2022-10-18T18:41:13.188Z,6.77
2022-10-18T18:43:59.263Z,5.23
2022-10-18T18:46:43.372Z,6.83
2022-10-18T18:49:28.319Z,7.73
2022-10-18T18:52:12.507Z,6.57
2022-10-18T18:54:57.909Z,10.87
2022-10-18T18:57:41.879Z,8.30
2022-10-18T19:00:26.029Z,7.53
2022-10-18T19:03:10.726Z,5.33
2022-10-18T19:06:04.002Z,6.23
2022-10-18T19:08:48.616Z,5.57
2022-10-18T19:11:35.864Z,6.70
2022-10-18T19:17:09.592Z,5.50
2022-10-18T19:19:54.470Z,8.20
2022-10-18T19:22:38.583Z,9.77
2022-10-18T19:25:24.791Z,8.40
2022-10-18T19:28:12.277Z,16.60
2022-10-18T19:30:58.481Z,14.43
2022-10-18T19:33:48.440Z,14.83
2022-10-18T19:36:45.264Z,7.07
2022-10-18T19:39:32.476Z,5.87
2022-10-18T19:42:20.503Z,5.60
2022-10-18T19:45:10.380Z,7.77
2022-10-18T19:47:54.216Z,5.93
2022-10-18T19:50:38.338Z,7.60
2022-10-18T19:53:22.285Z,6.43
2022-10-18T19:56:07.609Z,5.20
2022-10-18T19:58:52.098Z,5.00
2022-10-18T20:01:37.673Z,4.20
2022-10-18T20:04:21.744Z,7.60
2022-10-18T20:07:05.937Z,8.17
2022-10-18T20:09:50.423Z,5.30
2022-10-18T20:12:35.532Z,6.80
2022-10-18T20:15:19.518Z,6.07
2022-10-18T20:18:04.929Z,4.10
2022-10-18T20:20:50.013Z,5.13
2022-10-18T20:23:36.068Z,5.57
2022-10-18T20:26:21.179Z,7.03
2022-10-18T20:29:05.418Z,7.30
2022-10-18T20:31:49.438Z,7.47
2022-10-18T20:34:34.811Z,7.07
2022-10-18T20:37:18.579Z,6.53
2022-10-18T20:40:02.378Z,6.07
2022-10-18T20:42:47.294Z,5.50
2022-10-18T20:45:31.074Z,3.80
2022-10-18T20:48:14.951Z,4.40
2022-10-18T20:51:04.301Z,6.17
2022-10-18T20:53:48.310Z,4.00
2022-10-18T20:56:34.321Z,11.67
2022-10-18T20:59:18.190Z,5.80
2022-10-18T21:02:02.012Z,5.03
2022-10-18T21:04:45.845Z,4.80
2022-10-18T21:07:32.424Z,5.17
2022-10-18T21:10:16.460Z,4.70
2022-10-18T21:13:00.170Z,4.57
2022-10-18T21:15:43.956Z,4.07
2022-10-18T21:18:28.582Z,4.13
2022-10-18T21:21:14.582Z,5.00
2022-10-18T21:24:02.565Z,5.97
2022-10-18T21:26:49.358Z,5.23
2022-10-18T21:29:33.173Z,5.30
2022-10-18T21:32:17.811Z,3.57
2022-10-18T21:35:01.656Z,4.70
2022-10-18T21:37:46.756Z,3.77
2022-10-18T21:40:32.374Z,4.63
2022-10-18T21:43:16.160Z,6.77
2022-10-18T21:46:00.495Z,3.20
2022-10-18T21:48:45.332Z,4.03
2022-10-18T21:51:29.511Z,4.30
2022-10-18T21:54:15.660Z,4.47
2022-10-18T21:57:00.855Z,4.17
2022-10-18T21:59:44.692Z,4.13
2022-10-18T22:02:28.629Z,4.73
2022-10-18T22:05:12.485Z,4.80
2022-10-18T22:07:56.388Z,5.73
2022-10-18T22:10:40.075Z,4.50
2022-10-18T22:13:25.361Z,5.67
2022-10-18T22:16:11.077Z,8.00
2022-10-18T22:18:58.851Z,4.23
2022-10-18T22:21:42.582Z,4.20
2022-10-18T22:24:26.503Z,6.70
2022-10-18T22:27:10.318Z,4.90
2022-10-18T22:29:55.466Z,3.40
2022-10-18T22:32:41.115Z,3.13
2022-10-18T22:35:24.896Z,8.30
2022-10-18T22:38:08.885Z,4.43
2022-10-18T22:40:52.672Z,3.93
2022-10-18T22:43:37.489Z,3.23
2022-10-18T22:46:22.761Z,4.20
2022-10-18T22:49:06.957Z,4.10
2022-10-18T22:51:50.740Z,4.93
2022-10-18T22:54:34.600Z,3.93
2022-10-18T22:57:18.387Z,4.10
2022-10-18T23:00:02.135Z,4.87
2022-10-18T23:02:51.441Z,5.10
2022-10-18T23:05:39.098Z,4.87
2022-10-18T23:08:22.962Z,6.63
2022-10-18T23:11:07.088Z,4.40
2022-10-18T23:13:51.178Z,4.00
2022-10-18T23:16:35.312Z,3.53
2022-10-18T23:19:20.473Z,5.80
2022-10-18T23:22:04.254Z,4.80
2022-10-18T23:24:48.035Z,3.30
2022-10-18T23:27:31.836Z,3.33
2022-10-18T23:30:16.711Z,3.70
2022-10-18T23:33:00.453Z,3.10
2022-10-18T23:35:47.395Z,4.23
2022-10-18T23:38:31.364Z,3.67
2022-10-18T23:41:16.828Z,3.53
2022-10-18T23:44:00.520Z,3.03
2022-10-18T23:46:44.286Z,3.03
2022-10-18T23:49:28.090Z,4.13
2022-10-18T23:52:13.375Z,4.03
2022-10-18T23:54:57.177Z,3.80
2022-10-18T23:57:40.872Z,4.60
